createdAt,value
2023-09-02T00:00:08.742Z,3.00
2023-09-02T00:02:38.408Z,2.57
2023-09-02T00:05:07.294Z,4.13
2023-09-02T00:07:35.675Z,3.60
2023-09-02T00:10:04.966Z,6.87
2023-09-02T00:12:33.305Z,3.40
2023-09-02T00:15:01.745Z,4.40
2023-09-02T00:17:30.091Z,3.57
2023-09-02T00:19:59.991Z,5.97
2023-09-02T00:22:29.645Z,3.53
2023-09-02T00:24:57.890Z,3.87
2023-09-02T00:27:26.177Z,3.93
2023-09-02T00:29:54.421Z,3.70
2023-09-02T00:32:23.992Z,3.90
2023-09-02T00:34:52.296Z,4.03
2023-09-02T00:37:22.157Z,4.80
2023-09-02T00:39:50.617Z,3.67
2023-09-02T00:42:21.740Z,4.13
2023-09-02T00:44:50.159Z,4.30
2023-09-02T00:47:18.538Z,5.23
2023-09-02T00:49:46.860Z,5.83
2023-09-02T00:52:15.079Z,4.87
2023-09-02T00:54:44.777Z,4.57
2023-09-02T00:57:13.033Z,5.23
2023-09-02T00:59:41.238Z,6.00
2023-09-02T01:02:11.066Z,5.20
2023-09-02T01:04:39.383Z,4.77
2023-09-02T01:07:08.929Z,5.60
2023-09-02T01:09:37.122Z,6.30
2023-09-02T01:12:07.544Z,6.53
2023-09-02T01:14:36.133Z,6.20
2023-09-02T01:17:04.802Z,6.10
2023-09-02T01:19:33.235Z,5.90
2023-09-02T01:22:17.416Z,6.03
2023-09-02T01:25:18.312Z,6.80
2023-09-02T01:27:52.244Z,5.00
2023-09-02T01:30:22.087Z,5.63
2023-09-02T01:32:55.338Z,5.10
2023-09-02T01:35:29.024Z,4.70
2023-09-02T01:37:59.924Z,4.07
2023-09-02T01:40:29.678Z,7.90
2023-09-02T01:43:01.721Z,5.17
2023-09-02T01:45:32.870Z,5.07
2023-09-02T01:48:01.388Z,7.13
2023-09-02T01:50:31.710Z,5.17
2023-09-02T01:53:01.409Z,5.00
2023-09-02T01:55:29.937Z,6.20
2023-09-02T01:58:00.350Z,4.80
2023-09-02T02:00:29.111Z,4.23
2023-09-02T02:02:57.957Z,4.83
2023-09-02T02:05:33.487Z,6.53
2023-09-02T02:08:06.545Z,4.80
2023-09-02T02:10:37.978Z,4.80
2023-09-02T02:13:07.746Z,5.67
2023-09-02T02:15:35.949Z,5.63
2023-09-02T02:18:04.825Z,5.80
2023-09-02T02:20:41.256Z,5.30
2023-09-02T02:23:10.793Z,7.17
2023-09-02T02:25:39.218Z,5.17
2023-09-02T02:28:08.872Z,4.47
2023-09-02T02:30:37.399Z,4.90
2023-09-02T02:33:06.530Z,4.80
2023-09-02T02:35:35.104Z,4.63
2023-09-02T02:38:03.751Z,5.07
2023-09-02T02:40:33.138Z,4.80
2023-09-02T02:43:01.321Z,5.00
2023-09-02T02:45:31.424Z,4.80
2023-09-02T02:47:59.892Z,4.70
2023-09-02T02:50:28.178Z,8.37
2023-09-02T02:52:56.889Z,4.33
2023-09-02T02:55:25.109Z,4.00
2023-09-02T02:57:53.272Z,6.70
2023-09-02T03:00:22.079Z,11.17
2023-09-02T03:02:53.307Z,5.83
2023-09-02T03:05:23.272Z,9.10
2023-09-02T03:07:51.503Z,4.97
2023-09-02T03:10:20.340Z,10.00
2023-09-02T03:12:48.781Z,5.77
2023-09-02T03:15:17.186Z,5.10
2023-09-02T03:17:45.417Z,4.70
2023-09-02T03:20:15.511Z,5.60
2023-09-02T03:22:43.947Z,5.10
2023-09-02T03:25:12.307Z,4.70
2023-09-02T03:27:41.446Z,5.80
2023-09-02T03:30:09.850Z,5.27
2023-09-02T03:32:38.310Z,5.37
2023-09-02T03:35:09.344Z,6.40
2023-09-02T03:37:38.942Z,6.20
2023-09-02T03:40:08.675Z,6.97
2023-09-02T03:42:37.057Z,6.50
2023-09-02T03:45:06.008Z,6.90
2023-09-02T03:47:35.149Z,8.43
2023-09-02T03:50:03.645Z,7.37
2023-09-02T03:52:31.941Z,6.33
2023-09-02T03:55:01.756Z,6.07
2023-09-02T03:57:29.993Z,6.47
2023-09-02T03:59:58.251Z,6.70
2023-09-02T04:02:26.699Z,5.70
2023-09-02T04:04:54.874Z,8.80
2023-09-02T04:07:23.117Z,7.40
2023-09-02T04:09:52.057Z,7.93
2023-09-02T04:12:21.741Z,6.90
2023-09-02T04:14:49.963Z,8.40
2023-09-02T04:17:18.923Z,10.40
2023-09-02T04:19:47.302Z,6.33
2023-09-02T04:22:16.667Z,7.57
2023-09-02T04:24:45.014Z,7.57
2023-09-02T04:27:13.365Z,7.03
2023-09-02T04:29:42.927Z,10.50
2023-09-02T04:32:12.404Z,9.07
2023-09-02T04:34:41.384Z,8.03
2023-09-02T04:37:09.574Z,7.30
2023-09-02T04:39:41.340Z,7.63
2023-09-02T04:42:09.700Z,7.63
2023-09-02T04:44:38.041Z,7.60
2023-09-02T04:47:11.242Z,6.97
2023-09-02T04:49:39.594Z,6.23
2023-09-02T04:52:07.965Z,7.07
2023-09-02T04:54:36.460Z,6.40
2023-09-02T04:57:05.257Z,7.07
2023-09-02T04:59:33.438Z,7.20
2023-09-02T05:02:01.891Z,6.53
2023-09-02T05:04:31.713Z,14.83
2023-09-02T05:06:59.986Z,6.40
2023-09-02T05:09:28.520Z,7.67
2023-09-02T05:11:56.804Z,10.77
2023-09-02T05:14:24.976Z,9.43
2023-09-02T05:16:53.288Z,9.83
2023-09-02T05:19:21.818Z,7.63
2023-09-02T05:21:51.374Z,11.10
2023-09-02T05:24:19.805Z,8.97
2023-09-02T05:26:50.057Z,7.87
2023-09-02T05:29:18.450Z,9.60
2023-09-02T05:31:46.916Z,10.50
2023-09-02T05:34:15.726Z,9.30
2023-09-02T05:36:43.931Z,7.83
2023-09-02T05:39:13.827Z,8.40
2023-09-02T05:41:42.015Z,7.53
2023-09-02T05:44:10.192Z,9.67
2023-09-02T05:46:38.586Z,7.43
2023-09-02T05:49:06.933Z,9.50
2023-09-02T05:51:35.165Z,10.13
2023-09-02T05:54:03.610Z,7.13
2023-09-02T05:56:35.015Z,8.30
2023-09-02T05:59:03.461Z,9.03
2023-09-02T06:01:32.115Z,9.50
2023-09-02T06:04:00.538Z,6.87
2023-09-02T06:06:28.770Z,10.03
2023-09-02T06:08:57.397Z,7.67
2023-09-02T06:11:25.626Z,7.57
2023-09-02T06:13:55.249Z,7.83
2023-09-02T06:16:23.705Z,11.03
2023-09-02T06:18:51.973Z,10.90
2023-09-02T06:21:20.210Z,10.03
2023-09-02T06:23:48.635Z,9.23
2023-09-02T06:26:16.985Z,9.87
2023-09-02T06:28:47.001Z,10.67
2023-09-02T06:31:17.245Z,9.67
2023-09-02T06:33:45.571Z,11.83
2023-09-02T06:36:14.463Z,8.13
2023-09-02T06:38:42.896Z,8.97
2023-09-02T06:41:12.702Z,11.80
2023-09-02T06:43:41.786Z,9.47
2023-09-02T06:46:12.076Z,12.20
2023-09-02T06:48:41.687Z,11.23
2023-09-02T06:51:10.144Z,10.83
2023-09-02T06:53:39.040Z,13.00
2023-09-02T06:56:09.348Z,7.83
2023-09-02T06:58:39.021Z,7.73
2023-09-02T07:01:07.569Z,8.00
2023-09-02T07:03:35.824Z,9.50
2023-09-02T07:06:09.947Z,11.57
2023-09-02T07:08:38.208Z,7.07
2023-09-02T07:11:08.150Z,6.43
2023-09-02T07:13:36.600Z,7.57
2023-09-02T07:16:05.983Z,12.90
2023-09-02T07:18:34.646Z,8.17
2023-09-02T07:21:04.206Z,9.80
2023-09-02T07:23:35.061Z,12.60
2023-09-02T07:26:05.799Z,6.47
2023-09-02T07:28:37.697Z,7.07
2023-09-02T07:31:07.202Z,7.63
2023-09-02T07:33:35.530Z,5.77
2023-09-02T07:36:09.041Z,7.20
2023-09-02T07:38:40.886Z,8.13
2023-09-02T07:41:11.273Z,8.10
2023-09-02T07:43:39.577Z,6.90
2023-09-02T07:46:07.862Z,7.80
2023-09-02T07:48:36.486Z,6.93
2023-09-02T07:51:04.854Z,8.57
2023-09-02T07:53:33.331Z,13.97
2023-09-02T07:56:03.250Z,9.03
2023-09-02T07:58:31.451Z,8.10
2023-09-02T08:00:59.710Z,12.97
2023-09-02T08:03:28.258Z,13.10
2023-09-02T08:05:56.897Z,10.97
2023-09-02T08:08:25.087Z,6.10
2023-09-02T08:11:05.008Z,6.40
2023-09-02T08:13:33.481Z,8.57
2023-09-02T08:16:05.389Z,6.30
2023-09-02T08:18:34.571Z,9.57
2023-09-02T08:21:03.131Z,13.63
2023-09-02T08:23:31.331Z,7.30
2023-09-02T08:25:59.522Z,9.43
2023-09-02T08:28:29.162Z,8.57
2023-09-02T08:30:57.551Z,5.83
2023-09-02T08:33:25.806Z,6.93
2023-09-02T08:35:54.309Z,7.50
2023-09-02T08:38:22.610Z,10.37
2023-09-02T08:40:54.655Z,8.83
2023-09-02T08:43:45.401Z,8.37
2023-09-02T08:46:18.910Z,8.80
2023-09-02T08:48:48.076Z,8.50
2023-09-02T08:51:17.228Z,9.47
2023-09-02T08:53:47.785Z,7.37
2023-09-02T08:56:16.372Z,6.37
2023-09-02T08:58:46.244Z,9.37
2023-09-02T09:01:20.985Z,7.47
2023-09-02T09:03:51.253Z,9.70
2023-09-02T09:06:23.010Z,9.27
2023-09-02T09:08:53.253Z,9.37
2023-09-02T09:11:23.834Z,7.80
2023-09-02T09:13:58.489Z,9.07
2023-09-02T09:16:32.728Z,11.83
2023-09-02T09:19:01.180Z,8.00
2023-09-02T09:21:29.664Z,7.53
2023-09-02T09:23:57.982Z,7.00
2023-09-02T09:26:27.584Z,6.37
2023-09-02T09:28:59.205Z,5.70
2023-09-02T09:31:28.840Z,5.38
2023-09-02T09:33:59.961Z,5.10
2023-09-02T09:36:29.688Z,5.03
2023-09-02T09:38:59.202Z,5.63
2023-09-02T09:41:29.185Z,4.93
2023-09-02T09:44:09.922Z,5.15
2023-09-02T09:46:48.630Z,4.20
2023-09-02T09:49:23.872Z,4.30
2023-09-02T09:51:53.839Z,5.55
2023-09-02T09:54:37.468Z,5.28
2023-09-02T09:57:06.885Z,7.47
2023-09-02T09:59:37.074Z,5.32
2023-09-02T10:02:06.550Z,5.03
2023-09-02T10:04:35.444Z,4.93
2023-09-02T10:07:41.009Z,5.97
2023-09-02T10:10:46.591Z,3.88
2023-09-02T10:13:16.462Z,6.18
2023-09-02T10:15:49.159Z,4.00
2023-09-02T10:18:18.436Z,5.18
2023-09-02T10:20:47.645Z,4.45
2023-09-02T10:23:16.327Z,6.18
2023-09-02T10:25:54.434Z,6.20
2023-09-02T10:28:32.748Z,8.37
2023-09-02T10:31:03.884Z,5.20
2023-09-02T10:33:38.159Z,4.57
2023-09-02T10:36:08.866Z,5.40
2023-09-02T10:38:41.572Z,6.13
2023-09-02T10:41:14.149Z,5.10
2023-09-02T10:43:43.567Z,4.77
2023-09-02T10:46:13.806Z,5.23
2023-09-02T10:48:46.012Z,5.00
2023-09-02T10:51:16.126Z,8.63
2023-09-02T10:54:01.745Z,6.07
2023-09-02T10:56:32.791Z,4.67
2023-09-02T10:59:01.681Z,5.40
2023-09-02T11:01:44.951Z,6.67
2023-09-02T11:04:13.449Z,5.23
2023-09-02T11:07:15.097Z,5.47
2023-09-02T11:09:53.180Z,6.90
2023-09-02T11:12:21.447Z,9.57
2023-09-02T11:15:17.949Z,5.77
2023-09-02T11:17:47.895Z,5.87
2023-09-02T11:20:20.304Z,5.37
2023-09-02T11:22:53.858Z,4.87
2023-09-02T11:25:38.237Z,5.10
2023-09-02T11:28:08.434Z,6.67
2023-09-02T11:30:38.510Z,3.00
2023-09-02T11:33:08.944Z,3.45
2023-09-02T11:35:39.034Z,2.95
2023-09-02T11:38:20.622Z,4.53
2023-09-02T11:40:49.297Z,6.50
2023-09-02T11:43:21.312Z,4.30
2023-09-02T11:45:50.833Z,3.50
2023-09-02T11:48:20.537Z,3.85
2023-09-02T11:50:48.749Z,3.17
2023-09-02T11:53:17.485Z,3.30
2023-09-02T11:55:46.231Z,2.80
2023-09-02T12:01:41.878Z,4.20
2023-09-02T12:04:12.849Z,4.53
2023-09-02T12:06:41.462Z,5.32
2023-09-02T12:09:10.114Z,4.00
2023-09-02T12:11:38.363Z,5.68
2023-09-02T12:14:06.699Z,5.75
2023-09-02T12:16:39.360Z,4.88
2023-09-02T12:19:08.252Z,5.55
2023-09-02T12:21:38.011Z,4.82
2023-09-02T12:24:06.866Z,4.35
2023-09-02T12:26:47.344Z,3.78
2023-09-02T12:29:19.796Z,2.33
2023-09-02T12:31:53.212Z,1.90
2023-09-02T12:34:21.418Z,2.95
2023-09-02T12:36:51.230Z,3.17
2023-09-02T12:39:26.226Z,2.97
2023-09-02T12:41:56.731Z,2.97
2023-09-02T12:44:24.970Z,2.70
2023-09-02T12:46:53.462Z,2.63
2023-09-02T12:49:22.093Z,2.47
2023-09-02T12:51:51.676Z,2.60
2023-09-02T12:54:20.018Z,2.67
2023-09-02T12:56:48.276Z,2.08
2023-09-02T12:59:16.511Z,2.13
2023-09-02T13:01:45.102Z,2.00
2023-09-02T13:04:13.360Z,4.45
2023-09-02T13:06:41.822Z,5.10
2023-09-02T13:09:12.016Z,4.05
2023-09-02T13:11:40.541Z,4.18
2023-09-02T13:14:09.338Z,4.90
2023-09-02T13:16:39.000Z,4.60
2023-09-02T13:19:07.245Z,4.65
2023-09-02T13:21:35.385Z,3.97
2023-09-02T13:24:03.629Z,4.40
2023-09-02T13:26:33.544Z,4.13
2023-09-02T13:29:04.112Z,4.05
2023-09-02T13:31:32.660Z,3.95
2023-09-02T13:34:03.668Z,3.80
2023-09-02T13:36:31.910Z,4.30
2023-09-02T13:39:01.142Z,5.75
2023-09-02T13:41:29.474Z,4.78
2023-09-02T13:43:59.064Z,4.65
2023-09-02T13:46:27.389Z,4.65
2023-09-02T13:48:55.658Z,5.80
2023-09-02T13:51:23.916Z,6.80
2023-09-02T13:53:54.565Z,7.13
2023-09-02T13:56:23.653Z,7.03
2023-09-02T13:58:52.816Z,6.30
2023-09-02T14:01:22.855Z,7.35
2023-09-02T14:03:52.758Z,8.30
2023-09-02T14:06:21.162Z,7.78
2023-09-02T14:08:49.618Z,7.50
2023-09-02T14:11:19.853Z,8.70
2023-09-02T14:13:51.210Z,9.07
2023-09-02T14:16:22.936Z,10.05
2023-09-02T14:18:51.250Z,11.38
2023-09-02T14:21:19.522Z,11.30
2023-09-02T14:23:47.963Z,12.52
2023-09-02T14:26:18.284Z,14.25
2023-09-02T14:28:46.879Z,13.23
2023-09-02T14:31:15.216Z,12.65
2023-09-02T14:33:45.107Z,12.98
2023-09-02T14:36:13.334Z,12.32
2023-09-02T14:38:43.708Z,12.48
2023-09-02T14:41:12.411Z,13.43
2023-09-02T14:43:40.609Z,14.40
2023-09-02T14:46:10.084Z,14.18
2023-09-02T14:48:38.543Z,15.73
2023-09-02T14:51:08.719Z,13.30
2023-09-02T14:53:37.640Z,16.15
2023-09-02T14:56:06.229Z,17.50
2023-09-02T14:58:34.512Z,19.23
2023-09-02T15:01:05.259Z,20.38
2023-09-02T15:07:17.135Z,21.83
2023-09-02T15:10:05.601Z,19.35
2023-09-02T15:12:34.773Z,18.35
2023-09-02T15:22:34.155Z,17.42
2023-09-02T15:25:02.483Z,14.95
2023-09-02T15:27:34.816Z,16.88
2023-09-02T15:30:04.406Z,16.83
2023-09-02T15:32:33.145Z,15.98
2023-09-02T15:35:01.335Z,15.07
2023-09-02T15:37:29.616Z,14.73
2023-09-02T15:40:04.398Z,17.15
2023-09-02T15:42:34.155Z,14.23
2023-09-02T15:45:02.517Z,15.98
2023-09-02T15:47:31.797Z,15.80
2023-09-02T15:50:00.230Z,13.13
2023-09-02T15:52:28.447Z,14.38
2023-09-02T15:54:58.028Z,13.63
2023-09-02T15:57:26.431Z,14.55
2023-09-02T15:59:54.725Z,13.93
2023-09-02T16:02:22.948Z,14.48
2023-09-02T16:04:51.728Z,13.73
2023-09-02T16:07:19.977Z,13.63
2023-09-02T16:09:48.193Z,14.98
2023-09-02T16:12:18.135Z,12.15
2023-09-02T16:14:46.422Z,11.57
2023-09-02T16:17:25.863Z,11.60
2023-09-02T16:19:54.161Z,12.82
2023-09-02T16:22:22.416Z,16.83
2023-09-02T16:24:53.608Z,12.95
2023-09-02T16:27:23.136Z,11.75
2023-09-02T16:29:51.559Z,12.93
2023-09-02T16:32:19.975Z,13.05
2023-09-02T16:34:48.163Z,13.50
2023-09-02T16:37:18.089Z,13.48
2023-09-02T16:39:47.580Z,12.52
2023-09-02T16:42:15.768Z,12.35
2023-09-02T16:44:47.958Z,11.85
2023-09-02T16:47:17.647Z,13.02
2023-09-02T16:49:46.143Z,10.65
2023-09-02T16:52:14.323Z,12.23
2023-09-02T16:54:42.626Z,13.23
2023-09-02T16:57:12.346Z,11.35
2023-09-02T16:59:40.920Z,11.00
2023-09-02T17:02:20.168Z,11.80
2023-09-02T17:04:48.536Z,11.35
2023-09-02T17:07:16.805Z,12.55
2023-09-02T17:09:45.293Z,11.82
2023-09-02T17:12:13.475Z,11.15
2023-09-02T17:14:41.788Z,13.57
2023-09-02T17:17:12.353Z,13.30
2023-09-02T17:19:45.736Z,12.65
2023-09-02T17:22:13.943Z,14.23
2023-09-02T17:24:42.149Z,15.23
2023-09-02T17:27:21.631Z,15.30
2023-09-02T17:29:51.133Z,15.37
2023-09-02T17:32:20.697Z,14.37
2023-09-02T17:34:49.032Z,15.53
2023-09-02T17:37:17.759Z,16.53
2023-09-02T17:39:46.679Z,17.63
2023-09-02T17:42:16.717Z,17.07
2023-09-02T17:44:46.476Z,20.60
2023-09-02T17:47:14.963Z,18.13
2023-09-02T17:49:44.534Z,16.80
2023-09-02T17:52:12.793Z,17.90
2023-09-02T17:54:41.270Z,18.63
2023-09-02T17:57:09.461Z,17.90
2023-09-02T17:59:37.859Z,16.63
2023-09-02T18:02:08.542Z,17.87
2023-09-02T18:04:36.759Z,19.30
2023-09-02T18:07:06.938Z,20.77
2023-09-02T18:09:35.109Z,20.47
2023-09-02T18:12:03.370Z,22.43
2023-09-02T18:14:32.054Z,18.37
2023-09-02T18:17:00.203Z,18.40
2023-09-02T18:19:28.379Z,20.63
2023-09-02T18:22:16.711Z,21.73
2023-09-02T18:25:23.989Z,28.53
2023-09-02T18:27:52.614Z,25.40
2023-09-02T18:30:21.187Z,25.10
2023-09-02T18:32:49.418Z,26.37
2023-09-02T18:35:18.373Z,25.97
2023-09-02T18:37:48.124Z,26.53
2023-09-02T18:40:16.927Z,26.33
2023-09-02T18:42:45.274Z,27.00
2023-09-02T18:45:15.597Z,26.30
2023-09-02T18:47:44.193Z,27.13
2023-09-02T18:53:54.441Z,28.37
2023-09-02T18:56:22.663Z,27.53
2023-09-02T18:58:50.857Z,28.00
2023-09-02T19:01:19.473Z,31.80
2023-09-02T19:03:47.792Z,28.17
2023-09-02T19:06:15.927Z,29.27
2023-09-02T19:08:45.592Z,29.13
2023-09-02T19:11:17.004Z,29.30
2023-09-02T19:13:45.640Z,25.30
2023-09-02T19:16:14.404Z,27.23
2023-09-02T19:18:42.555Z,28.57
2023-09-02T19:21:11.086Z,27.93
2023-09-02T19:23:40.068Z,27.90
2023-09-02T19:26:08.715Z,26.70
2023-09-02T19:28:38.237Z,29.03
2023-09-02T19:31:06.736Z,29.70
2023-09-02T19:33:34.979Z,30.23
2023-09-02T19:36:03.260Z,27.37
2023-09-02T19:38:31.895Z,26.77
2023-09-02T19:41:00.051Z,27.33
2023-09-02T19:43:28.273Z,29.07
2023-09-02T19:46:05.116Z,32.07
2023-09-02T19:48:33.413Z,29.90
2023-09-02T19:51:01.614Z,25.00
2023-09-02T19:53:30.839Z,31.50
2023-09-02T19:56:00.628Z,29.97
2023-09-02T19:58:29.275Z,32.67
2023-09-02T20:00:59.006Z,27.77
2023-09-02T20:03:27.228Z,29.33
2023-09-02T20:05:55.612Z,29.97
2023-09-02T20:08:24.183Z,29.63
2023-09-02T20:10:52.350Z,28.87
2023-09-02T20:13:21.182Z,26.37
2023-09-02T20:15:58.822Z,24.67
2023-09-02T20:18:27.390Z,29.77
2023-09-02T20:20:55.523Z,30.73
2023-09-02T20:23:23.998Z,31.90
2023-09-02T20:25:52.865Z,29.57
2023-09-02T20:28:21.387Z,28.70
2023-09-02T20:30:51.467Z,31.03
2023-09-02T20:33:21.246Z,30.20
2023-09-02T20:35:49.429Z,29.83
2023-09-02T20:38:17.862Z,29.37
2023-09-02T20:40:46.477Z,29.80
2023-09-02T20:43:14.982Z,26.37
2023-09-02T20:45:44.400Z,30.50
2023-09-02T20:48:13.803Z,32.37
2023-09-02T20:50:46.273Z,27.57
2023-09-02T20:53:14.595Z,34.33
2023-09-02T20:55:42.748Z,31.57
2023-09-02T20:58:11.023Z,33.13
2023-09-02T21:00:40.132Z,28.63
2023-09-02T21:03:08.726Z,32.33
2023-09-02T21:05:41.559Z,28.93
2023-09-02T21:08:11.435Z,32.60
2023-09-02T21:10:40.129Z,30.60
2023-09-02T21:13:08.258Z,34.57
2023-09-02T21:15:37.349Z,30.53
2023-09-02T21:18:06.340Z,35.27
2023-09-02T21:20:34.945Z,33.23
2023-09-02T21:23:03.341Z,35.13
2023-09-02T21:25:33.124Z,33.43
2023-09-02T21:28:01.538Z,36.03
2023-09-02T21:30:29.785Z,35.43
2023-09-02T21:32:58.305Z,35.33
2023-09-02T21:35:26.733Z,37.50
2023-09-02T21:37:54.889Z,34.90
2023-09-02T21:40:23.344Z,35.33
2023-09-02T21:42:53.028Z,38.43
2023-09-02T21:45:21.296Z,39.97
2023-09-02T21:47:49.686Z,39.57
2023-09-02T21:50:18.250Z,38.13
2023-09-02T21:52:46.423Z,38.43
2023-09-02T21:55:14.847Z,38.60
2023-09-02T21:57:43.224Z,36.77
2023-09-02T22:00:14.519Z,35.93
2023-09-02T22:02:42.865Z,37.70
2023-09-02T22:05:11.204Z,39.13
2023-09-02T22:07:39.499Z,40.83
2023-09-02T22:10:08.812Z,40.33
2023-09-02T22:12:36.950Z,39.70
2023-09-02T22:15:05.839Z,42.60
2023-09-02T22:17:35.566Z,38.53
2023-09-02T22:20:04.547Z,38.40
2023-09-02T22:22:32.701Z,39.83
2023-09-02T22:25:00.954Z,35.80
2023-09-02T22:27:29.227Z,36.20
2023-09-02T22:29:57.362Z,37.40
2023-09-02T22:32:25.744Z,37.23
2023-09-02T22:34:55.324Z,37.33
2023-09-02T22:37:23.674Z,39.60
2023-09-02T22:39:52.916Z,43.30
2023-09-02T22:42:21.165Z,43.77
2023-09-02T22:44:49.414Z,40.30
2023-09-02T22:47:17.967Z,42.20
2023-09-02T22:49:48.221Z,39.90
2023-09-02T22:52:36.696Z,42.67
2023-09-02T22:55:04.988Z,43.70
2023-09-02T22:57:34.139Z,41.20
2023-09-02T23:00:02.514Z,40.43
2023-09-02T23:02:30.679Z,36.67
2023-09-02T23:04:58.878Z,37.50
2023-09-02T23:07:27.119Z,36.30
2023-09-02T23:09:57.296Z,35.93
2023-09-02T23:12:25.480Z,31.60
2023-09-02T23:14:54.249Z,33.97
2023-09-02T23:17:22.699Z,31.87
2023-09-02T23:19:56.432Z,29.40
2023-09-02T23:22:25.164Z,30.50
2023-09-02T23:24:53.366Z,31.00
2023-09-02T23:27:23.174Z,32.80
2023-09-02T23:29:54.460Z,33.37
2023-09-02T23:32:22.830Z,31.43
2023-09-02T23:34:50.991Z,32.57
2023-09-02T23:37:19.333Z,31.03
2023-09-02T23:39:47.565Z,34.83
2023-09-02T23:42:17.024Z,36.80
2023-09-02T23:44:48.078Z,32.73
2023-09-02T23:47:16.482Z,37.67
2023-09-02T23:49:44.747Z,38.30
2023-09-02T23:52:13.047Z,36.87
2023-09-02T23:54:41.750Z,36.07
2023-09-02T23:57:10.040Z,42.23
2023-09-02T23:59:38.382Z,42.43
